sensor_id;sensor_type;location;lat;lon;timestamp;pressure;altitude;pressure_sealevel;temperature;humidity
18201;BME280;9226;47.858;9.594;2023-05-03T00:02:13;95851.91;;;9.26;82.33
18201;BME280;9226;47.858;9.594;2023-05-03T00:04:40;95855.84;;;9.20;82.32
18201;BME280;9226;47.858;9.594;2023-05-03T00:07:06;95850.97;;;9.14;82.68
18201;BME280;9226;47.858;9.594;2023-05-03T00:09:34;95855.41;;;9.14;82.25
18201;BME280;9226;47.858;9.594;2023-05-03T00:12:00;95856.50;;;9.11;82.44
18201;BME280;9226;47.858;9.594;2023-05-03T00:14:26;95853.94;;;9.10;82.12
18201;BME280;9226;47.858;9.594;2023-05-03T00:16:51;95846.44;;;9.03;82.46
18201;BME280;9226;47.858;9.594;2023-05-03T00:19:16;95838.50;;;9.03;82.08
18201;BME280;9226;47.858;9.594;2023-05-03T00:21:43;95840.50;;;9.00;82.67
18201;BME280;9226;47.858;9.594;2023-05-03T00:24:09;95845.03;;;8.98;82.43
18201;BME280;9226;47.858;9.594;2023-05-03T00:26:34;95848.84;;;8.94;82.59
18201;BME280;9226;47.858;9.594;2023-05-03T00:29:00;95842.50;;;8.83;84.18
18201;BME280;9226;47.858;9.594;2023-05-03T00:31:25;95845.88;;;8.85;83.35
18201;BME280;9226;47.858;9.594;2023-05-03T00:33:50;95844.19;;;8.84;83.61
18201;BME280;9226;47.858;9.594;2023-05-03T00:36:16;95840.81;;;8.82;84.13
18201;BME280;9226;47.858;9.594;2023-05-03T00:38:41;95847.78;;;8.83;83.97
18201;BME280;9226;47.858;9.594;2023-05-03T00:41:08;95838.91;;;8.84;83.86
18201;BME280;9226;47.858;9.594;2023-05-03T00:43:34;95843.47;;;8.82;84.56
18201;BME280;9226;47.858;9.594;2023-05-03T00:46:01;95837.00;;;8.86;83.88
18201;BME280;9226;47.858;9.594;2023-05-03T00:48:28;95839.84;;;8.83;84.00
18201;BME280;9226;47.858;9.594;2023-05-03T00:50:58;95827.59;;;8.82;84.05
18201;BME280;9226;47.858;9.594;2023-05-03T00:53:25;95829.25;;;8.83;83.91
18201;BME280;9226;47.858;9.594;2023-05-03T00:55:51;95828.72;;;8.78;84.85
18201;BME280;9226;47.858;9.594;2023-05-03T00:58:17;95834.53;;;8.83;83.74
18201;BME280;9226;47.858;9.594;2023-05-03T01:00:43;95829.25;;;8.83;83.60
18201;BME280;9226;47.858;9.594;2023-05-03T01:03:08;95827.59;;;8.82;84.02
18201;BME280;9226;47.858;9.594;2023-05-03T01:05:49;95830.44;;;8.79;85.31
18201;BME280;9226;47.858;9.594;2023-05-03T01:10:50;95822.81;;;8.75;85.16
18201;BME280;9226;47.858;9.594;2023-05-03T01:13:55;95825.09;;;8.66;86.41
18201;BME280;9226;47.858;9.594;2023-05-03T01:16:41;95824.25;;;8.66;85.48
18201;BME280;9226;47.858;9.594;2023-05-03T01:19:32;95826.19;;;8.64;85.85
18201;BME280;9226;47.858;9.594;2023-05-03T01:22:32;95828.72;;;8.65;84.78
18201;BME280;9226;47.858;9.594;2023-05-03T01:25:08;95821.72;;;8.64;84.34
18201;BME280;9226;47.858;9.594;2023-05-03T01:27:35;95813.06;;;8.62;84.49
18201;BME280;9226;47.858;9.594;2023-05-03T01:30:09;95817.91;;;8.56;84.84
18201;BME280;9226;47.858;9.594;2023-05-03T01:35:46;95810.78;;;8.43;86.73
18201;BME280;9226;47.858;9.594;2023-05-03T01:38:12;95810.50;;;8.48;85.66
18201;BME280;9226;47.858;9.594;2023-05-03T01:40:45;95814.91;;;8.47;85.44
18201;BME280;9226;47.858;9.594;2023-05-03T01:43:12;95810.03;;;8.41;86.41
18201;BME280;9226;47.858;9.594;2023-05-03T01:45:38;95803.88;;;8.41;86.36
18201;BME280;9226;47.858;9.594;2023-05-03T01:48:15;95804.75;;;8.41;86.72
18201;BME280;9226;47.858;9.594;2023-05-03T01:50:41;95809.38;;;8.38;87.22
18201;BME280;9226;47.858;9.594;2023-05-03T01:53:06;95812.09;;;8.36;87.69
18201;BME280;9226;47.858;9.594;2023-05-03T01:55:31;95806.72;;;8.38;87.58
18201;BME280;9226;47.858;9.594;2023-05-03T01:57:57;95814.56;;;8.39;87.38
18201;BME280;9226;47.858;9.594;2023-05-03T02:00:23;95822.47;;;8.39;87.08
18201;BME280;9226;47.858;9.594;2023-05-03T02:02:48;95813.81;;;8.37;87.04
18201;BME280;9226;47.858;9.594;2023-05-03T02:05:13;95817.41;;;8.36;87.10
18201;BME280;9226;47.858;9.594;2023-05-03T02:07:39;95822.69;;;8.36;86.71
18201;BME280;9226;47.858;9.594;2023-05-03T02:10:05;95832.44;;;8.36;86.57
18201;BME280;9226;47.858;9.594;2023-05-03T02:12:31;95836.88;;;8.35;86.14
18201;BME280;9226;47.858;9.594;2023-05-03T02:14:56;95827.25;;;8.34;86.05
18201;BME280;9226;47.858;9.594;2023-05-03T02:17:21;95833.47;;;8.33;86.20
18201;BME280;9226;47.858;9.594;2023-05-03T02:19:53;95831.69;;;8.33;85.58
18201;BME280;9226;47.858;9.594;2023-05-03T02:22:19;95829.16;;;8.32;85.67
18201;BME280;9226;47.858;9.594;2023-05-03T02:24:44;95832.81;;;8.29;85.59
18201;BME280;9226;47.858;9.594;2023-05-03T02:27:10;95831.13;;;8.28;85.31
18201;BME280;9226;47.858;9.594;2023-05-03T02:29:36;95833.03;;;8.26;85.36
18201;BME280;9226;47.858;9.594;2023-05-03T02:32:01;95832.19;;;8.26;84.71
18201;BME280;9226;47.858;9.594;2023-05-03T02:34:30;95828.78;;;8.24;84.77
18201;BME280;9226;47.858;9.594;2023-05-03T02:36:55;95822.03;;;8.20;85.04
18201;BME280;9226;47.858;9.594;2023-05-03T02:39:21;95829.22;;;8.18;85.33
18201;BME280;9226;47.858;9.594;2023-05-03T02:41:46;95821.38;;;8.16;85.21
18201;BME280;9226;47.858;9.594;2023-05-03T02:44:11;95825.91;;;8.14;85.28
18201;BME280;9226;47.858;9.594;2023-05-03T02:46:37;95825.16;;;8.12;85.52
18201;BME280;9226;47.858;9.594;2023-05-03T02:49:02;95826.88;;;8.13;85.42
18201;BME280;9226;47.858;9.594;2023-05-03T02:51:28;95821.69;;;8.11;86.02
18201;BME280;9226;47.858;9.594;2023-05-03T02:53:53;95820.16;;;8.07;86.41
18201;BME280;9226;47.858;9.594;2023-05-03T02:56:19;95818.47;;;8.06;86.19
18201;BME280;9226;47.858;9.594;2023-05-03T02:58:45;95809.78;;;8.04;86.79
18201;BME280;9226;47.858;9.594;2023-05-03T03:01:10;95816.59;;;8.08;85.79
18201;BME280;9226;47.858;9.594;2023-05-03T03:03:36;95819.22;;;8.08;85.64
18201;BME280;9226;47.858;9.594;2023-05-03T03:06:01;95821.41;;;8.02;86.54
18201;BME280;9226;47.858;9.594;2023-05-03T03:08:26;95822.38;;;8.01;86.12
18201;BME280;9226;47.858;9.594;2023-05-03T03:10:52;95823.22;;;8.01;86.38
18201;BME280;9226;47.858;9.594;2023-05-03T03:13:17;95819.28;;;7.94;87.51
18201;BME280;9226;47.858;9.594;2023-05-03T03:15:43;95822.56;;;7.97;86.77
18201;BME280;9226;47.858;9.594;2023-05-03T03:18:08;95826.06;;;7.98;86.53
18201;BME280;9226;47.858;9.594;2023-05-03T03:20:33;95826.25;;;7.95;86.92
18201;BME280;9226;47.858;9.594;2023-05-03T03:22:59;95823.59;;;7.95;87.02
18201;BME280;9226;47.858;9.594;2023-05-03T03:25:24;95820.97;;;7.95;86.72
18201;BME280;9226;47.858;9.594;2023-05-03T03:27:50;95820.41;;;7.90;87.44
18201;BME280;9226;47.858;9.594;2023-05-03T03:30:15;95817.88;;;7.88;87.69
18201;BME280;9226;47.858;9.594;2023-05-03T03:32:41;95822.53;;;7.85;88.45
18201;BME280;9226;47.858;9.594;2023-05-03T03:35:08;95821.84;;;7.81;88.87
18201;BME280;9226;47.858;9.594;2023-05-03T03:37:34;95819.31;;;7.79;89.54
18201;BME280;9226;47.858;9.594;2023-05-03T03:39:59;95820.91;;;7.82;90.35
18201;BME280;9226;47.858;9.594;2023-05-03T03:42:25;95815.72;;;7.81;91.85
18201;BME280;9226;47.858;9.594;2023-05-03T03:44:50;95820.22;;;7.93;91.38
18201;BME280;9226;47.858;9.594;2023-05-03T03:47:16;95820.66;;;8.00;91.81
18201;BME280;9226;47.858;9.594;2023-05-03T03:49:41;95819.97;;;8.10;91.75
18201;BME280;9226;47.858;9.594;2023-05-03T03:52:06;95822.13;;;7.91;95.38
18201;BME280;9226;47.858;9.594;2023-05-03T03:54:32;95821.25;;;7.90;96.02
18201;BME280;9226;47.858;9.594;2023-05-03T03:56:59;95838.22;;;8.01;94.92
18201;BME280;9226;47.858;9.594;2023-05-03T03:59:27;95832.09;;;8.00;94.93
18201;BME280;9226;47.858;9.594;2023-05-03T04:01:52;95835.28;;;8.05;94.72
18201;BME280;9226;47.858;9.594;2023-05-03T04:04:18;95844.41;;;8.14;94.18
18201;BME280;9226;47.858;9.594;2023-05-03T04:06:43;95842.44;;;8.18;93.88
18201;BME280;9226;47.858;9.594;2023-05-03T04:09:09;95844.03;;;8.33;93.04
18201;BME280;9226;47.858;9.594;2023-05-03T04:11:34;95843.09;;;8.34;93.14
18201;BME280;9226;47.858;9.594;2023-05-03T04:14:00;95850.25;;;8.46;92.36
18201;BME280;9226;47.858;9.594;2023-05-03T04:16:26;95857.88;;;8.51;92.57
18201;BME280;9226;47.858;9.594;2023-05-03T04:18:52;95853.56;;;8.36;94.27
18201;BME280;9226;47.858;9.594;2023-05-03T04:21:18;95861.91;;;8.29;95.31
18201;BME280;9226;47.858;9.594;2023-05-03T04:23:44;95856.28;;;8.48;93.37
18201;BME280;9226;47.858;9.594;2023-05-03T04:26:09;95864.41;;;8.45;94.56
18201;BME280;9226;47.858;9.594;2023-05-03T04:28:35;95866.13;;;8.46;94.53
18201;BME280;9226;47.858;9.594;2023-05-03T04:31:02;95873.34;;;8.57;93.93
18201;BME280;9226;47.858;9.594;2023-05-03T04:33:27;95863.50;;;8.59;94.22
18201;BME280;9226;47.858;9.594;2023-05-03T04:35:54;95859.84;;;8.75;92.60
18201;BME280;9226;47.858;9.594;2023-05-03T04:38:20;95865.97;;;8.75;92.82
18201;BME280;9226;47.858;9.594;2023-05-03T04:40:46;95866.72;;;8.77;93.06
18201;BME280;9226;47.858;9.594;2023-05-03T04:43:11;95873.41;;;8.83;92.56
18201;BME280;9226;47.858;9.594;2023-05-03T04:45:38;95879.31;;;8.86;92.82
18201;BME280;9226;47.858;9.594;2023-05-03T04:48:04;95873.41;;;8.96;92.01
18201;BME280;9226;47.858;9.594;2023-05-03T04:50:30;95880.00;;;9.03;91.71
18201;BME280;9226;47.858;9.594;2023-05-03T04:52:55;95877.00;;;9.08;92.04
18201;BME280;9226;47.858;9.594;2023-05-03T04:55:20;95877.44;;;9.01;92.33
18201;BME280;9226;47.858;9.594;2023-05-03T04:57:46;95878.81;;;9.07;92.17
18201;BME280;9226;47.858;9.594;2023-05-03T05:00:12;95873.41;;;8.96;93.23
18201;BME280;9226;47.858;9.594;2023-05-03T05:02:38;95878.72;;;8.96;93.50
18201;BME280;9226;47.858;9.594;2023-05-03T05:05:03;95878.81;;;8.94;93.81
18201;BME280;9226;47.858;9.594;2023-05-03T05:07:29;95875.31;;;8.94;93.82
18201;BME280;9226;47.858;9.594;2023-05-03T05:09:55;95879.56;;;9.09;92.72
18201;BME280;9226;47.858;9.594;2023-05-03T05:12:20;95879.22;;;9.01;93.33
18201;BME280;9226;47.858;9.594;2023-05-03T05:14:46;95876.06;;;8.96;94.22
18201;BME280;9226;47.858;9.594;2023-05-03T05:17:12;95880.72;;;9.05;93.81
18201;BME280;9226;47.858;9.594;2023-05-03T05:19:37;95878.72;;;8.96;94.37
18201;BME280;9226;47.858;9.594;2023-05-03T05:22:03;95880.63;;;9.19;92.78
18201;BME280;9226;47.858;9.594;2023-05-03T05:24:29;95886.44;;;9.12;93.17
18201;BME280;9226;47.858;9.594;2023-05-03T05:26:55;95884.56;;;9.27;92.59
18201;BME280;9226;47.858;9.594;2023-05-03T05:29:20;95892.81;;;9.22;92.86
18201;BME280;9226;47.858;9.594;2023-05-03T05:31:46;95886.25;;;9.28;92.53
18201;BME280;9226;47.858;9.594;2023-05-03T05:34:11;95895.47;;;9.35;92.84
18201;BME280;9226;47.858;9.594;2023-05-03T05:36:36;95885.06;;;9.45;92.27
18201;BME280;9226;47.858;9.594;2023-05-03T05:39:02;95889.09;;;9.50;91.89
18201;BME280;9226;47.858;9.594;2023-05-03T05:41:27;95893.84;;;9.58;91.48
18201;BME280;9226;47.858;9.594;2023-05-03T05:43:53;95885.69;;;9.61;91.31
18201;BME280;9226;47.858;9.594;2023-05-03T05:46:18;95888.88;;;9.66;91.58
18201;BME280;9226;47.858;9.594;2023-05-03T05:48:45;95893.28;;;9.78;90.65
18201;BME280;9226;47.858;9.594;2023-05-03T05:51:11;95899.56;;;9.77;90.37
18201;BME280;9226;47.858;9.594;2023-05-03T05:53:36;95894.91;;;9.68;90.45
18201;BME280;9226;47.858;9.594;2023-05-03T05:56:02;95895.44;;;9.73;90.74
18201;BME280;9226;47.858;9.594;2023-05-03T05:58:27;95899.47;;;9.79;90.32
18201;BME280;9226;47.858;9.594;2023-05-03T06:00:57;95901.13;;;9.80;89.84
18201;BME280;9226;47.858;9.594;2023-05-03T06:03:22;95902.84;;;9.81;89.87
18201;BME280;9226;47.858;9.594;2023-05-03T06:05:48;95900.91;;;9.83;89.56
18201;BME280;9226;47.858;9.594;2023-05-03T06:08:13;95900.25;;;9.92;89.30
18201;BME280;9226;47.858;9.594;2023-05-03T06:10:38;95899.44;;;9.92;89.33
18201;BME280;9226;47.858;9.594;2023-05-03T06:13:04;95898.88;;;10.00;88.66
18201;BME280;9226;47.858;9.594;2023-05-03T06:15:29;95896.19;;;10.12;88.54
18201;BME280;9226;47.858;9.594;2023-05-03T06:17:55;95900.28;;;10.29;87.79
18201;BME280;9226;47.858;9.594;2023-05-03T06:20:21;95898.94;;;10.11;87.42
18201;BME280;9226;47.858;9.594;2023-05-03T06:22:48;95903.75;;;10.06;87.56
18201;BME280;9226;47.858;9.594;2023-05-03T06:25:13;95910.94;;;10.04;88.17
18201;BME280;9226;47.858;9.594;2023-05-03T06:27:39;95912.88;;;10.02;89.26
18201;BME280;9226;47.858;9.594;2023-05-03T06:30:05;95913.22;;;10.21;89.02
18201;BME280;9226;47.858;9.594;2023-05-03T06:32:30;95911.22;;;10.12;88.11
18201;BME280;9226;47.858;9.594;2023-05-03T06:34:56;95901.59;;;10.48;87.51
18201;BME280;9226;47.858;9.594;2023-05-03T06:37:23;95909.88;;;10.43;88.92
18201;BME280;9226;47.858;9.594;2023-05-03T06:39:49;95909.31;;;10.75;88.04
18201;BME280;9226;47.858;9.594;2023-05-03T06:42:15;95908.09;;;11.03;87.11
18201;BME280;9226;47.858;9.594;2023-05-03T06:44:41;95910.06;;;11.24;85.72
18201;BME280;9226;47.858;9.594;2023-05-03T06:47:07;95904.06;;;11.33;84.60
18201;BME280;9226;47.858;9.594;2023-05-03T06:49:32;95914.22;;;11.39;83.24
18201;BME280;9226;47.858;9.594;2023-05-03T06:51:57;95908.56;;;11.44;83.23
18201;BME280;9226;47.858;9.594;2023-05-03T06:54:23;95912.22;;;11.54;82.47
18201;BME280;9226;47.858;9.594;2023-05-03T06:56:48;95903.84;;;11.48;82.01
18201;BME280;9226;47.858;9.594;2023-05-03T06:59:15;95907.19;;;11.38;81.91
18201;BME280;9226;47.858;9.594;2023-05-03T07:01:40;95910.63;;;11.52;81.72
18201;BME280;9226;47.858;9.594;2023-05-03T07:04:05;95895.50;;;11.52;82.06
18201;BME280;9226;47.858;9.594;2023-05-03T07:06:31;95901.47;;;11.67;81.50
18201;BME280;9226;47.858;9.594;2023-05-03T07:08:56;95897.09;;;11.66;81.70
18201;BME280;9226;47.858;9.594;2023-05-03T07:11:22;95904.13;;;11.79;81.42
18201;BME280;9226;47.858;9.594;2023-05-03T07:13:53;95895.66;;;11.73;81.88
18201;BME280;9226;47.858;9.594;2023-05-03T07:16:19;95894.09;;;12.05;82.07
18201;BME280;9226;47.858;9.594;2023-05-03T07:18:46;95896.22;;;12.22;80.18
18201;BME280;9226;47.858;9.594;2023-05-03T07:21:12;95890.28;;;12.74;80.24
18201;BME280;9226;47.858;9.594;2023-05-03T07:23:38;95885.25;;;12.92;76.84
18201;BME280;9226;47.858;9.594;2023-05-03T07:26:04;95876.50;;;13.74;79.23
18201;BME280;9226;47.858;9.594;2023-05-03T07:28:30;95880.25;;;14.33;74.48
18201;BME280;9226;47.858;9.594;2023-05-03T07:30:55;95876.41;;;15.06;71.54
18201;BME280;9226;47.858;9.594;2023-05-03T07:33:21;95871.13;;;16.00;69.58
18201;BME280;9226;47.858;9.594;2023-05-03T07:35:47;95872.53;;;16.50;64.72
18201;BME280;9226;47.858;9.594;2023-05-03T07:38:13;95868.47;;;17.36;62.06
18201;BME280;9226;47.858;9.594;2023-05-03T07:40:38;95871.56;;;17.94;59.72
18201;BME280;9226;47.858;9.594;2023-05-03T07:43:04;95870.66;;;18.70;56.86
18201;BME280;9226;47.858;9.594;2023-05-03T07:45:29;95869.56;;;19.06;54.90
18201;BME280;9226;47.858;9.594;2023-05-03T07:47:55;95863.00;;;20.22;55.75
18201;BME280;9226;47.858;9.594;2023-05-03T07:50:21;95872.78;;;20.94;51.23
18201;BME280;9226;47.858;9.594;2023-05-03T07:52:47;95876.97;;;21.43;49.33
18201;BME280;9226;47.858;9.594;2023-05-03T07:55:17;95874.56;;;22.01;50.31
18201;BME280;9226;47.858;9.594;2023-05-03T07:57:43;95870.59;;;22.42;49.08
18201;BME280;9226;47.858;9.594;2023-05-03T08:00:08;95865.00;;;22.43;47.52
18201;BME280;9226;47.858;9.594;2023-05-03T08:02:35;95856.31;;;22.84;45.15
18201;BME280;9226;47.858;9.594;2023-05-03T08:05:01;95855.38;;;23.35;45.35
18201;BME280;9226;47.858;9.594;2023-05-03T08:07:26;95851.09;;;23.69;43.87
18201;BME280;9226;47.858;9.594;2023-05-03T08:09:52;95850.03;;;23.92;42.93
18201;BME280;9226;47.858;9.594;2023-05-03T08:12:18;95846.97;;;24.01;43.18
18201;BME280;9226;47.858;9.594;2023-05-03T08:14:43;95846.88;;;24.23;42.80
18201;BME280;9226;47.858;9.594;2023-05-03T08:17:09;95848.06;;;24.55;40.08
18201;BME280;9226;47.858;9.594;2023-05-03T08:19:34;95852.34;;;24.30;40.57
18201;BME280;9226;47.858;9.594;2023-05-03T08:22:00;95854.22;;;24.71;39.89
18201;BME280;9226;47.858;9.594;2023-05-03T08:24:25;95848.22;;;24.41;41.14
18201;BME280;9226;47.858;9.594;2023-05-03T08:26:51;95854.13;;;24.16;40.23
18201;BME280;9226;47.858;9.594;2023-05-03T08:29:16;95845.44;;;23.92;40.11
18201;BME280;9226;47.858;9.594;2023-05-03T08:31:42;95839.31;;;24.12;40.58
18201;BME280;9226;47.858;9.594;2023-05-03T08:34:07;95835.09;;;24.02;40.53
18201;BME280;9226;47.858;9.594;2023-05-03T08:36:35;95829.63;;;23.67;40.19
18201;BME280;9226;47.858;9.594;2023-05-03T08:39:02;95833.91;;;23.55;40.12
18201;BME280;9226;47.858;9.594;2023-05-03T08:41:32;95841.41;;;23.53;41.48
18201;BME280;9226;47.858;9.594;2023-05-03T09:01:50;95832.38;;;22.00;44.86
18201;BME280;9226;47.858;9.594;2023-05-03T09:04:16;95823.66;;;21.60;46.14
18201;BME280;9226;47.858;9.594;2023-05-03T09:06:41;95827.16;;;21.98;46.72
18201;BME280;9226;47.858;9.594;2023-05-03T09:09:07;95838.31;;;22.10;45.29
18201;BME280;9226;47.858;9.594;2023-05-03T09:11:34;95830.41;;;22.23;46.10
18201;BME280;9226;47.858;9.594;2023-05-03T09:14:17;95828.84;;;22.66;44.83
18201;BME280;9226;47.858;9.594;2023-05-03T09:16:44;95834.59;;;22.99;44.47
18201;BME280;9226;47.858;9.594;2023-05-03T09:19:11;95830.94;;;23.07;41.80
18201;BME280;9226;47.858;9.594;2023-05-03T09:21:44;95840.81;;;23.58;43.21
18201;BME280;9226;47.858;9.594;2023-05-03T09:24:18;95838.88;;;24.08;41.51
18201;BME280;9226;47.858;9.594;2023-05-03T09:26:45;95827.59;;;23.76;41.59
18201;BME280;9226;47.858;9.594;2023-05-03T09:29:34;95825.91;;;24.03;42.01
18201;BME280;9226;47.858;9.594;2023-05-03T09:32:02;95829.44;;;24.39;41.25
18201;BME280;9226;47.858;9.594;2023-05-03T09:34:33;95835.09;;;24.99;40.55
18201;BME280;9226;47.858;9.594;2023-05-03T09:36:59;95830.06;;;24.96;39.45
18201;BME280;9226;47.858;9.594;2023-05-03T09:39:25;95831.41;;;25.74;39.05
18201;BME280;9226;47.858;9.594;2023-05-03T09:41:50;95835.72;;;26.35;37.88
18201;BME280;9226;47.858;9.594;2023-05-03T09:44:16;95841.19;;;26.15;37.47
18201;BME280;9226;47.858;9.594;2023-05-03T09:47:04;95836.59;;;25.22;36.83
18201;BME280;9226;47.858;9.594;2023-05-03T09:49:31;95832.66;;;25.58;38.12
18201;BME280;9226;47.858;9.594;2023-05-03T09:51:58;95833.03;;;25.95;37.76
18201;BME280;9226;47.858;9.594;2023-05-03T09:54:24;95835.13;;;25.93;37.50
18201;BME280;9226;47.858;9.594;2023-05-03T09:56:50;95840.59;;;25.99;37.14
18201;BME280;9226;47.858;9.594;2023-05-03T09:59:16;95839.28;;;26.29;37.19
18201;BME280;9226;47.858;9.594;2023-05-03T10:01:42;95837.06;;;25.59;37.00
18201;BME280;9226;47.858;9.594;2023-05-03T10:04:08;95834.31;;;26.06;37.57
18201;BME280;9226;47.858;9.594;2023-05-03T10:06:36;95834.97;;;25.34;37.55
18201;BME280;9226;47.858;9.594;2023-05-03T10:09:11;95843.13;;;25.48;37.10
18201;BME280;9226;47.858;9.594;2023-05-03T10:11:42;95833.09;;;25.55;38.14
18201;BME280;9226;47.858;9.594;2023-05-03T10:14:12;95827.22;;;25.64;38.16
18201;BME280;9226;47.858;9.594;2023-05-03T10:16:40;95826.44;;;24.27;36.97
18201;BME280;9226;47.858;9.594;2023-05-03T10:21:55;95824.63;;;23.71;40.00
18201;BME280;9226;47.858;9.594;2023-05-03T10:24:22;95830.28;;;23.48;38.62
18201;BME280;9226;47.858;9.594;2023-05-03T10:26:49;95824.00;;;23.69;40.04
18201;BME280;9226;47.858;9.594;2023-05-03T10:32:43;95821.94;;;23.21;40.13
18201;BME280;9226;47.858;9.594;2023-05-03T10:34:45;95820.84;;;23.94;40.51
18201;BME280;9226;47.858;9.594;2023-05-03T10:37:10;95818.50;;;23.84;40.06
18201;BME280;9226;47.858;9.594;2023-05-03T10:39:36;95800.59;;;24.25;39.07
18201;BME280;9226;47.858;9.594;2023-05-03T10:42:08;95814.41;;;23.66;39.87
18201;BME280;9226;47.858;9.594;2023-05-03T10:44:40;95817.91;;;23.39;40.53
18201;BME280;9226;47.858;9.594;2023-05-03T10:47:21;95815.13;;;23.82;39.25
18201;BME280;9226;47.858;9.594;2023-05-03T10:55:15;95811.03;;;22.35;40.64
18201;BME280;9226;47.858;9.594;2023-05-03T10:57:43;95819.22;;;22.78;40.96
18201;BME280;9226;47.858;9.594;2023-05-03T11:00:17;95810.72;;;22.81;40.37
18201;BME280;9226;47.858;9.594;2023-05-03T11:03:05;95807.59;;;22.63;40.30
18201;BME280;9226;47.858;9.594;2023-05-03T11:05:32;95807.78;;;23.47;40.97
18201;BME280;9226;47.858;9.594;2023-05-03T11:10:32;95809.16;;;21.61;40.17
18201;BME280;9226;47.858;9.594;2023-05-03T11:12:58;95821.75;;;21.45;42.67
18201;BME280;9226;47.858;9.594;2023-05-03T11:15:23;95813.47;;;21.70;41.63
18201;BME280;9226;47.858;9.594;2023-05-03T11:17:49;95801.78;;;21.69;42.07
18201;BME280;9226;47.858;9.594;2023-05-03T11:20:15;95815.13;;;22.01;42.34
18201;BME280;9226;47.858;9.594;2023-05-03T11:22:40;95807.00;;;21.56;41.40
18201;BME280;9226;47.858;9.594;2023-05-03T11:25:06;95807.19;;;21.31;43.20
18201;BME280;9226;47.858;9.594;2023-05-03T11:27:31;95803.69;;;20.61;42.87
18201;BME280;9226;47.858;9.594;2023-05-03T11:29:57;95805.44;;;20.46;44.10
18201;BME280;9226;47.858;9.594;2023-05-03T11:32:26;95802.94;;;20.45;44.87
18201;BME280;9226;47.858;9.594;2023-05-03T11:34:52;95798.47;;;19.97;45.26
18201;BME280;9226;47.858;9.594;2023-05-03T11:37:17;95802.66;;;20.00;44.83
18201;BME280;9226;47.858;9.594;2023-05-03T11:39:43;95791.66;;;19.53;46.10
18201;BME280;9226;47.858;9.594;2023-05-03T11:42:08;95796.59;;;19.25;47.05
18201;BME280;9226;47.858;9.594;2023-05-03T11:44:34;95799.63;;;18.97;46.99
18201;BME280;9226;47.858;9.594;2023-05-03T11:47:02;95794.22;;;19.30;48.17
18201;BME280;9226;47.858;9.594;2023-05-03T11:49:27;95797.59;;;19.32;46.58
18201;BME280;9226;47.858;9.594;2023-05-03T11:51:53;95806.72;;;19.15;45.83
18201;BME280;9226;47.858;9.594;2023-05-03T11:54:18;95793.78;;;19.75;47.85
18201;BME280;9226;47.858;9.594;2023-05-03T11:56:43;95796.84;;;19.63;47.80
18201;BME280;9226;47.858;9.594;2023-05-03T11:59:09;95805.81;;;18.81;47.02
18201;BME280;9226;47.858;9.594;2023-05-03T12:01:35;95806.13;;;18.46;48.89
18201;BME280;9226;47.858;9.594;2023-05-03T12:04:01;95795.72;;;18.75;48.44
18201;BME280;9226;47.858;9.594;2023-05-03T12:06:30;95790.38;;;18.84;49.33
18201;BME280;9226;47.858;9.594;2023-05-03T12:08:57;95802.28;;;18.65;50.53
18201;BME280;9226;47.858;9.594;2023-05-03T12:11:23;95797.09;;;18.04;50.42
18201;BME280;9226;47.858;9.594;2023-05-03T12:14:01;95786.66;;;18.01;50.59
18201;BME280;9226;47.858;9.594;2023-05-03T12:16:27;95789.53;;;17.65;52.37
18201;BME280;9226;47.858;9.594;2023-05-03T12:18:57;95788.91;;;17.79;51.64
18201;BME280;9226;47.858;9.594;2023-05-03T12:21:45;95796.59;;;17.74;54.04
18201;BME280;9226;47.858;9.594;2023-05-03T12:24:11;95790.19;;;17.67;51.37
18201;BME280;9226;47.858;9.594;2023-05-03T12:26:37;95796.03;;;17.88;51.71
18201;BME280;9226;47.858;9.594;2023-05-03T12:29:02;95787.34;;;17.68;51.97
18201;BME280;9226;47.858;9.594;2023-05-03T12:31:27;95776.38;;;17.88;51.88
18201;BME280;9226;47.858;9.594;2023-05-03T12:33:53;95777.13;;;17.72;51.01
18201;BME280;9226;47.858;9.594;2023-05-03T12:36:19;95783.91;;;17.50;52.21
18201;BME280;9226;47.858;9.594;2023-05-03T12:38:44;95767.25;;;17.38;53.08
18201;BME280;9226;47.858;9.594;2023-05-03T12:41:10;95783.41;;;17.54;52.78
18201;BME280;9226;47.858;9.594;2023-05-03T12:43:36;95776.03;;;17.57;52.33
18201;BME280;9226;47.858;9.594;2023-05-03T12:46:01;95783.41;;;17.54;51.77
18201;BME280;9226;47.858;9.594;2023-05-03T12:48:28;95767.91;;;17.66;51.47
18201;BME280;9226;47.858;9.594;2023-05-03T12:50:54;95767.78;;;17.76;50.58
18201;BME280;9226;47.858;9.594;2023-05-03T12:53:19;95771.78;;;17.72;51.95
18201;BME280;9226;47.858;9.594;2023-05-03T12:55:46;95774.66;;;17.44;51.10
18201;BME280;9226;47.858;9.594;2023-05-03T12:58:12;95767.59;;;17.43;51.63
18201;BME280;9226;47.858;9.594;2023-05-03T13:00:37;95763.28;;;17.50;50.79
18201;BME280;9226;47.858;9.594;2023-05-03T13:03:03;95767.72;;;17.07;50.44
18201;BME280;9226;47.858;9.594;2023-05-03T13:05:29;95762.47;;;17.24;51.76
18201;BME280;9226;47.858;9.594;2023-05-03T13:07:55;95741.06;;;17.32;50.84
18201;BME280;9226;47.858;9.594;2023-05-03T13:10:21;95751.31;;;17.36;51.93
18201;BME280;9226;47.858;9.594;2023-05-03T13:12:47;95744.50;;;17.16;52.30
18201;BME280;9226;47.858;9.594;2023-05-03T13:15:12;95733.88;;;17.41;52.01
18201;BME280;9226;47.858;9.594;2023-05-03T13:17:38;95737.50;;;17.58;53.03
18201;BME280;9226;47.858;9.594;2023-05-03T13:20:04;95740.03;;;17.33;51.94
18201;BME280;9226;47.858;9.594;2023-05-03T13:22:31;95739.00;;;17.26;50.89
18201;BME280;9226;47.858;9.594;2023-05-03T13:24:56;95725.13;;;17.30;50.14
18201;BME280;9226;47.858;9.594;2023-05-03T13:27:22;95737.63;;;17.22;49.94
18201;BME280;9226;47.858;9.594;2023-05-03T13:29:47;95727.03;;;17.38;51.09
18201;BME280;9226;47.858;9.594;2023-05-03T13:32:12;95726.47;;;17.34;50.88
18201;BME280;9226;47.858;9.594;2023-05-03T13:34:38;95728.59;;;17.23;50.76
18201;BME280;9226;47.858;9.594;2023-05-03T13:37:03;95717.78;;;17.06;50.22
18201;BME280;9226;47.858;9.594;2023-05-03T13:39:28;95715.00;;;17.16;50.68
18201;BME280;9226;47.858;9.594;2023-05-03T13:41:54;95727.97;;;17.29;52.03
18201;BME280;9226;47.858;9.594;2023-05-03T13:44:20;95716.19;;;17.22;49.26
18201;BME280;9226;47.858;9.594;2023-05-03T13:46:49;95718.41;;;17.26;50.11
18201;BME280;9226;47.858;9.594;2023-05-03T13:49:15;95721.09;;;17.34;49.91
18201;BME280;9226;47.858;9.594;2023-05-03T13:51:40;95725.28;;;17.29;49.48